sensor_id;sensor_type;location;lat;lon;timestamp;P1;durP1;ratioP1;P2;durP2;ratioP2
579;SDS011;276;48.392;9.950;2023-02-01T00:00:45;9.07;;;6.97;;
579;SDS011;276;48.392;9.950;2023-02-01T00:03:11;8.57;;;7.10;;
579;SDS011;276;48.392;9.950;2023-02-01T00:05:38;6.97;;;6.17;;
579;SDS011;276;48.392;9.950;2023-02-01T00:08:03;8.13;;;6.10;;
579;SDS011;276;48.392;9.950;2023-02-01T00:10:29;7.67;;;6.63;;
579;SDS011;276;48.392;9.950;2023-02-01T00:12:55;9.20;;;6.50;;
579;SDS011;276;48.392;9.950;2023-02-01T00:15:20;7.03;;;6.33;;
579;SDS011;276;48.392;9.950;2023-02-01T00:17:52;7.07;;;6.47;;
579;SDS011;276;48.392;9.950;2023-02-01T00:20:21;7.30;;;6.60;;
579;SDS011;276;48.392;9.950;2023-02-01T00:22:47;5.90;;;5.43;;
579;SDS011;276;48.392;9.950;2023-02-01T00:25:12;6.57;;;6.03;;
579;SDS011;276;48.392;9.950;2023-02-01T00:27:40;9.10;;;5.40;;
579;SDS011;276;48.392;9.950;2023-02-01T00:30:08;8.03;;;5.40;;
579;SDS011;276;48.392;9.950;2023-02-01T00:32:35;6.70;;;5.80;;
579;SDS011;276;48.392;9.950;2023-02-01T00:35:00;5.40;;;4.90;;
579;SDS011;276;48.392;9.950;2023-02-01T00:37:28;6.27;;;5.77;;
579;SDS011;276;48.392;9.950;2023-02-01T00:39:54;6.47;;;5.87;;
579;SDS011;276;48.392;9.950;2023-02-01T00:42:20;5.83;;;5.27;;
579;SDS011;276;48.392;9.950;2023-02-01T00:44:46;5.83;;;5.30;;
579;SDS011;276;48.392;9.950;2023-02-01T00:47:12;5.60;;;4.83;;
579;SDS011;276;48.392;9.950;2023-02-01T00:49:37;7.60;;;6.27;;
579;SDS011;276;48.392;9.950;2023-02-01T00:52:03;5.70;;;4.97;;
579;SDS011;276;48.392;9.950;2023-02-01T00:54:29;5.23;;;4.67;;
579;SDS011;276;48.392;9.950;2023-02-01T00:56:54;5.10;;;4.60;;
579;SDS011;276;48.392;9.950;2023-02-01T00:59:20;5.67;;;5.17;;
579;SDS011;276;48.392;9.950;2023-02-01T01:01:45;5.47;;;4.97;;
579;SDS011;276;48.392;9.950;2023-02-01T01:04:11;5.90;;;5.03;;
579;SDS011;276;48.392;9.950;2023-02-01T01:06:39;5.50;;;5.10;;
579;SDS011;276;48.392;9.950;2023-02-01T01:09:07;6.13;;;5.53;;
579;SDS011;276;48.392;9.950;2023-02-01T01:11:36;9.13;;;5.30;;
579;SDS011;276;48.392;9.950;2023-02-01T01:14:03;5.80;;;5.30;;
579;SDS011;276;48.392;9.950;2023-02-01T01:16:31;6.00;;;5.50;;
579;SDS011;276;48.392;9.950;2023-02-01T01:18:57;5.50;;;5.00;;
579;SDS011;276;48.392;9.950;2023-02-01T01:21:23;6.23;;;5.37;;
579;SDS011;276;48.392;9.950;2023-02-01T01:23:50;6.43;;;5.70;;
579;SDS011;276;48.392;9.950;2023-02-01T01:26:17;5.77;;;5.17;;
579;SDS011;276;48.392;9.950;2023-02-01T01:28:44;6.10;;;5.50;;
579;SDS011;276;48.392;9.950;2023-02-01T01:31:12;6.77;;;5.10;;
579;SDS011;276;48.392;9.950;2023-02-01T01:33:42;6.57;;;5.57;;
579;SDS011;276;48.392;9.950;2023-02-01T01:36:09;6.60;;;5.80;;
579;SDS011;276;48.392;9.950;2023-02-01T01:38:36;5.37;;;4.97;;
579;SDS011;276;48.392;9.950;2023-02-01T01:41:02;5.93;;;5.43;;
579;SDS011;276;48.392;9.950;2023-02-01T01:46:22;5.27;;;4.77;;
579;SDS011;276;48.392;9.950;2023-02-01T01:49:11;6.87;;;6.27;;
579;SDS011;276;48.392;9.950;2023-02-01T01:51:54;8.30;;;5.60;;
579;SDS011;276;48.392;9.950;2023-02-01T01:54:27;5.67;;;5.17;;
579;SDS011;276;48.392;9.950;2023-02-01T01:56:59;7.43;;;5.77;;
579;SDS011;276;48.392;9.950;2023-02-01T01:59:28;5.77;;;5.23;;
579;SDS011;276;48.392;9.950;2023-02-01T02:01:56;9.00;;;5.10;;
579;SDS011;276;48.392;9.950;2023-02-01T02:04:22;6.50;;;4.80;;
579;SDS011;276;48.392;9.950;2023-02-01T02:09:21;5.57;;;5.17;;
579;SDS011;276;48.392;9.950;2023-02-01T02:11:47;7.83;;;6.17;;
579;SDS011;276;48.392;9.950;2023-02-01T02:14:16;5.50;;;5.00;;
579;SDS011;276;48.392;9.950;2023-02-01T02:41:43;6.20;;;5.60;;
579;SDS011;276;48.392;9.950;2023-02-01T02:44:45;9.23;;;5.47;;
579;SDS011;276;48.392;9.950;2023-02-01T02:47:36;6.07;;;5.53;;
579;SDS011;276;48.392;9.950;2023-02-01T02:50:20;5.67;;;5.17;;
579;SDS011;276;48.392;9.950;2023-02-01T02:56:03;5.80;;;5.30;;
579;SDS011;276;48.392;9.950;2023-02-01T02:58:50;7.17;;;6.53;;
579;SDS011;276;48.392;9.950;2023-02-01T03:01:36;6.73;;;6.20;;
579;SDS011;276;48.392;9.950;2023-02-01T03:04:21;6.60;;;6.00;;
579;SDS011;276;48.392;9.950;2023-02-01T03:06:48;6.80;;;5.83;;
579;SDS011;276;48.392;9.950;2023-02-01T03:09:26;5.90;;;5.40;;
579;SDS011;276;48.392;9.950;2023-02-01T03:11:58;4.93;;;4.53;;
579;SDS011;276;48.392;9.950;2023-02-01T03:14:47;6.70;;;6.10;;
579;SDS011;276;48.392;9.950;2023-02-01T03:17:19;6.87;;;6.20;;
579;SDS011;276;48.392;9.950;2023-02-01T03:19:51;7.83;;;7.03;;
579;SDS011;276;48.392;9.950;2023-02-01T03:22:22;7.60;;;6.90;;
579;SDS011;276;48.392;9.950;2023-02-01T03:24:53;7.03;;;6.40;;
579;SDS011;276;48.392;9.950;2023-02-01T03:32:21;6.60;;;5.90;;
579;SDS011;276;48.392;9.950;2023-02-01T03:34:47;6.70;;;6.10;;
579;SDS011;276;48.392;9.950;2023-02-01T03:37:17;5.70;;;5.20;;
579;SDS011;276;48.392;9.950;2023-02-01T03:40:23;5.83;;;5.40;;
579;SDS011;276;48.392;9.950;2023-02-01T03:42:44;7.30;;;5.77;;
579;SDS011;276;48.392;9.950;2023-02-01T03:45:22;7.60;;;6.90;;
579;SDS011;276;48.392;9.950;2023-02-01T03:47:53;9.07;;;6.57;;
579;SDS011;276;48.392;9.950;2023-02-01T03:50:25;7.03;;;6.43;;
579;SDS011;276;48.392;9.950;2023-02-01T03:52:53;7.60;;;6.33;;
579;SDS011;276;48.392;9.950;2023-02-01T03:55:27;6.97;;;6.30;;
579;SDS011;276;48.392;9.950;2023-02-01T04:00:40;7.60;;;6.90;;
579;SDS011;276;48.392;9.950;2023-02-01T04:03:08;9.07;;;7.20;;
579;SDS011;276;48.392;9.950;2023-02-01T04:05:35;6.37;;;5.87;;
579;SDS011;276;48.392;9.950;2023-02-01T04:08:00;6.93;;;6.33;;
579;SDS011;276;48.392;9.950;2023-02-01T04:10:26;7.10;;;6.17;;
579;SDS011;276;48.392;9.950;2023-02-01T04:12:52;7.97;;;7.37;;
579;SDS011;276;48.392;9.950;2023-02-01T04:15:18;7.23;;;6.60;;
579;SDS011;276;48.392;9.950;2023-02-01T04:17:43;7.30;;;6.70;;
579;SDS011;276;48.392;9.950;2023-02-01T04:20:11;7.60;;;6.90;;
579;SDS011;276;48.392;9.950;2023-02-01T04:22:39;6.33;;;5.73;;
579;SDS011;276;48.392;9.950;2023-02-01T04:25:05;7.30;;;6.70;;
579;SDS011;276;48.392;9.950;2023-02-01T04:27:34;6.53;;;5.77;;
579;SDS011;276;48.392;9.950;2023-02-01T04:30:00;6.80;;;6.20;;
579;SDS011;276;48.392;9.950;2023-02-01T04:32:26;7.30;;;6.70;;
579;SDS011;276;48.392;9.950;2023-02-01T04:34:54;7.10;;;6.50;;
579;SDS011;276;48.392;9.950;2023-02-01T04:37:19;6.83;;;6.20;;
579;SDS011;276;48.392;9.950;2023-02-01T04:39:45;5.97;;;5.30;;
579;SDS011;276;48.392;9.950;2023-02-01T04:42:10;6.87;;;6.27;;
579;SDS011;276;48.392;9.950;2023-02-01T04:44:39;6.37;;;5.87;;
579;SDS011;276;48.392;9.950;2023-02-01T04:47:10;8.33;;;6.27;;
579;SDS011;276;48.392;9.950;2023-02-01T04:49:36;6.47;;;5.87;;
579;SDS011;276;48.392;9.950;2023-02-01T04:52:01;5.90;;;5.40;;
579;SDS011;276;48.392;9.950;2023-02-01T04:54:27;7.73;;;6.97;;
579;SDS011;276;48.392;9.950;2023-02-01T04:56:53;8.67;;;5.27;;
579;SDS011;276;48.392;9.950;2023-02-01T04:59:21;5.53;;;5.13;;
579;SDS011;276;48.392;9.950;2023-02-01T05:01:46;10.43;;;6.40;;
579;SDS011;276;48.392;9.950;2023-02-01T05:04:14;5.73;;;5.30;;
579;SDS011;276;48.392;9.950;2023-02-01T05:06:47;5.53;;;5.13;;
579;SDS011;276;48.392;9.950;2023-02-01T05:09:15;6.37;;;5.77;;
579;SDS011;276;48.392;9.950;2023-02-01T05:11:41;6.30;;;5.27;;
579;SDS011;276;48.392;9.950;2023-02-01T05:14:25;5.07;;;4.77;;
579;SDS011;276;48.392;9.950;2023-02-01T05:16:53;5.50;;;5.00;;
579;SDS011;276;48.392;9.950;2023-02-01T05:19:21;7.97;;;5.00;;
579;SDS011;276;48.392;9.950;2023-02-01T05:21:49;6.00;;;5.40;;
579;SDS011;276;48.392;9.950;2023-02-01T05:24:17;5.60;;;5.10;;
579;SDS011;276;48.392;9.950;2023-02-01T05:26:46;6.20;;;5.67;;
579;SDS011;276;48.392;9.950;2023-02-01T05:29:15;6.03;;;5.53;;
579;SDS011;276;48.392;9.950;2023-02-01T05:31:43;6.70;;;6.10;;
579;SDS011;276;48.392;9.950;2023-02-01T05:34:10;6.30;;;5.67;;
579;SDS011;276;48.392;9.950;2023-02-01T05:36:36;6.00;;;5.50;;
579;SDS011;276;48.392;9.950;2023-02-01T05:39:02;8.60;;;5.30;;
579;SDS011;276;48.392;9.950;2023-02-01T05:41:28;6.77;;;6.07;;
579;SDS011;276;48.392;9.950;2023-02-01T05:43:58;8.00;;;7.30;;
579;SDS011;276;48.392;9.950;2023-02-01T05:46:25;5.67;;;5.17;;
579;SDS011;276;48.392;9.950;2023-02-01T05:48:51;6.40;;;5.43;;
579;SDS011;276;48.392;9.950;2023-02-01T05:51:19;7.13;;;6.53;;
579;SDS011;276;48.392;9.950;2023-02-01T05:53:47;6.60;;;6.00;;
579;SDS011;276;48.392;9.950;2023-02-01T05:56:17;6.67;;;6.10;;
579;SDS011;276;48.392;9.950;2023-02-01T05:58:43;7.00;;;6.30;;
579;SDS011;276;48.392;9.950;2023-02-01T06:01:11;7.13;;;6.43;;
579;SDS011;276;48.392;9.950;2023-02-01T06:03:39;5.93;;;5.43;;
579;SDS011;276;48.392;9.950;2023-02-01T06:06:06;6.60;;;6.00;;
579;SDS011;276;48.392;9.950;2023-02-01T06:08:34;8.90;;;7.33;;
579;SDS011;276;48.392;9.950;2023-02-01T06:11:05;7.73;;;7.03;;
579;SDS011;276;48.392;9.950;2023-02-01T06:13:32;7.13;;;5.50;;
579;SDS011;276;48.392;9.950;2023-02-01T06:16:00;6.93;;;6.23;;
579;SDS011;276;48.392;9.950;2023-02-01T06:18:33;7.37;;;6.60;;
579;SDS011;276;48.392;9.950;2023-02-01T06:21:03;7.53;;;6.27;;
579;SDS011;276;48.392;9.950;2023-02-01T06:23:29;7.60;;;6.00;;
579;SDS011;276;48.392;9.950;2023-02-01T06:25:59;6.03;;;5.53;;
579;SDS011;276;48.392;9.950;2023-02-01T06:28:34;6.20;;;5.60;;
579;SDS011;276;48.392;9.950;2023-02-01T06:31:06;6.83;;;6.03;;
579;SDS011;276;48.392;9.950;2023-02-01T06:33:32;5.33;;;4.93;;
579;SDS011;276;48.392;9.950;2023-02-01T06:35:59;5.70;;;5.20;;
579;SDS011;276;48.392;9.950;2023-02-01T06:38:27;6.20;;;5.60;;
579;SDS011;276;48.392;9.950;2023-02-01T06:40:53;5.87;;;5.37;;
579;SDS011;276;48.392;9.950;2023-02-01T06:43:20;6.23;;;5.73;;
579;SDS011;276;48.392;9.950;2023-02-01T06:45:47;5.47;;;5.00;;
579;SDS011;276;48.392;9.950;2023-02-01T06:48:15;6.10;;;5.20;;
579;SDS011;276;48.392;9.950;2023-02-01T06:50:40;6.47;;;5.87;;
579;SDS011;276;48.392;9.950;2023-02-01T06:53:08;5.97;;;4.87;;
579;SDS011;276;48.392;9.950;2023-02-01T06:55:36;5.87;;;4.60;;
579;SDS011;276;48.392;9.950;2023-02-01T06:58:02;6.57;;;5.57;;
579;SDS011;276;48.392;9.950;2023-02-01T07:00:28;4.50;;;4.10;;
579;SDS011;276;48.392;9.950;2023-02-01T07:02:57;5.20;;;4.73;;
579;SDS011;276;48.392;9.950;2023-02-01T07:05:24;4.30;;;3.80;;
579;SDS011;276;48.392;9.950;2023-02-01T07:07:50;5.27;;;4.33;;
579;SDS011;276;48.392;9.950;2023-02-01T07:10:18;4.17;;;3.50;;
579;SDS011;276;48.392;9.950;2023-02-01T07:12:45;5.80;;;5.30;;
579;SDS011;276;48.392;9.950;2023-02-01T07:15:13;5.87;;;5.00;;
579;SDS011;276;48.392;9.950;2023-02-01T07:17:42;4.30;;;3.90;;
579;SDS011;276;48.392;9.950;2023-02-01T07:20:10;4.63;;;4.23;;
579;SDS011;276;48.392;9.950;2023-02-01T07:22:36;3.90;;;3.60;;
579;SDS011;276;48.392;9.950;2023-02-01T07:25:02;3.40;;;3.10;;
579;SDS011;276;48.392;9.950;2023-02-01T07:27:30;3.30;;;3.10;;
579;SDS011;276;48.392;9.950;2023-02-01T07:29:57;5.70;;;4.30;;
579;SDS011;276;48.392;9.950;2023-02-01T07:32:27;3.53;;;3.30;;
579;SDS011;276;48.392;9.950;2023-02-01T07:34:53;5.00;;;3.70;;
579;SDS011;276;48.392;9.950;2023-02-01T07:37:21;3.60;;;3.30;;
579;SDS011;276;48.392;9.950;2023-02-01T07:39:50;3.37;;;3.13;;
579;SDS011;276;48.392;9.950;2023-02-01T07:42:16;5.23;;;4.10;;
579;SDS011;276;48.392;9.950;2023-02-01T07:44:42;3.93;;;3.53;;
579;SDS011;276;48.392;9.950;2023-02-01T07:47:08;3.87;;;3.57;;
579;SDS011;276;48.392;9.950;2023-02-01T07:49:33;4.70;;;4.30;;
579;SDS011;276;48.392;9.950;2023-02-01T07:51:59;4.47;;;4.07;;
579;SDS011;276;48.392;9.950;2023-02-01T07:54:25;4.50;;;4.10;;
579;SDS011;276;48.392;9.950;2023-02-01T07:56:51;4.10;;;3.80;;
579;SDS011;276;48.392;9.950;2023-02-01T07:59:16;3.87;;;3.57;;
579;SDS011;276;48.392;9.950;2023-02-01T08:01:44;4.93;;;3.70;;
579;SDS011;276;48.392;9.950;2023-02-01T08:04:10;4.20;;;3.80;;
579;SDS011;276;48.392;9.950;2023-02-01T08:06:38;3.53;;;3.27;;
579;SDS011;276;48.392;9.950;2023-02-01T08:09:06;4.70;;;4.30;;
579;SDS011;276;48.392;9.950;2023-02-01T08:11:33;5.63;;;4.20;;
579;SDS011;276;48.392;9.950;2023-02-01T08:14:02;5.67;;;4.20;;
579;SDS011;276;48.392;9.950;2023-02-01T08:16:29;5.10;;;4.60;;
579;SDS011;276;48.392;9.950;2023-02-01T08:18:54;5.13;;;4.63;;
579;SDS011;276;48.392;9.950;2023-02-01T08:21:24;5.37;;;4.97;;
579;SDS011;276;48.392;9.950;2023-02-01T08:23:53;5.90;;;4.73;;
579;SDS011;276;48.392;9.950;2023-02-01T08:26:24;5.53;;;4.90;;
579;SDS011;276;48.392;9.950;2023-02-01T08:28:57;5.93;;;5.00;;
579;SDS011;276;48.392;9.950;2023-02-01T08:31:25;5.20;;;4.47;;
579;SDS011;276;48.392;9.950;2023-02-01T08:33:58;5.50;;;5.00;;
579;SDS011;276;48.392;9.950;2023-02-01T08:36:30;4.53;;;4.13;;
579;SDS011;276;48.392;9.950;2023-02-01T08:38:56;5.63;;;5.13;;
579;SDS011;276;48.392;9.950;2023-02-01T08:41:25;4.90;;;4.40;;
579;SDS011;276;48.392;9.950;2023-02-01T08:43:55;5.40;;;4.97;;
579;SDS011;276;48.392;9.950;2023-02-01T08:46:23;6.00;;;5.50;;
579;SDS011;276;48.392;9.950;2023-02-01T08:48:49;5.23;;;4.73;;
579;SDS011;276;48.392;9.950;2023-02-01T08:51:21;5.13;;;4.63;;
579;SDS011;276;48.392;9.950;2023-02-01T08:53:52;5.80;;;5.20;;
579;SDS011;276;48.392;9.950;2023-02-01T08:56:18;6.77;;;5.63;;
579;SDS011;276;48.392;9.950;2023-02-01T08:58:44;5.67;;;5.17;;
579;SDS011;276;48.392;9.950;2023-02-01T09:01:13;6.70;;;6.20;;
579;SDS011;276;48.392;9.950;2023-02-01T09:03:42;7.00;;;6.30;;
579;SDS011;276;48.392;9.950;2023-02-01T09:06:09;6.30;;;5.80;;
579;SDS011;276;48.392;9.950;2023-02-01T09:08:36;7.70;;;6.10;;
579;SDS011;276;48.392;9.950;2023-02-01T09:11:04;6.30;;;5.80;;
579;SDS011;276;48.392;9.950;2023-02-01T09:13:31;6.87;;;5.70;;
579;SDS011;276;48.392;9.950;2023-02-01T09:15:58;6.17;;;5.57;;
579;SDS011;276;48.392;9.950;2023-02-01T09:18:24;8.00;;;5.80;;
579;SDS011;276;48.392;9.950;2023-02-01T09:20:50;7.33;;;5.40;;
579;SDS011;276;48.392;9.950;2023-02-01T09:23:18;6.10;;;5.60;;
579;SDS011;276;48.392;9.950;2023-02-01T09:25:45;7.33;;;5.97;;
579;SDS011;276;48.392;9.950;2023-02-01T09:28:15;5.83;;;5.33;;
579;SDS011;276;48.392;9.950;2023-02-01T09:30:41;5.40;;;4.90;;
579;SDS011;276;48.392;9.950;2023-02-01T09:33:06;5.93;;;5.23;;
579;SDS011;276;48.392;9.950;2023-02-01T09:35:32;5.40;;;4.43;;
579;SDS011;276;48.392;9.950;2023-02-01T09:37:57;5.67;;;4.80;;
579;SDS011;276;48.392;9.950;2023-02-01T09:40:25;5.57;;;5.17;;
579;SDS011;276;48.392;9.950;2023-02-01T09:43:13;7.20;;;6.60;;
579;SDS011;276;48.392;9.950;2023-02-01T09:48:45;5.73;;;5.30;;
579;SDS011;276;48.392;9.950;2023-02-01T09:51:34;6.33;;;5.83;;
579;SDS011;276;48.392;9.950;2023-02-01T09:59:37;3.90;;;3.60;;
579;SDS011;276;48.392;9.950;2023-02-01T10:02:11;6.20;;;5.70;;
579;SDS011;276;48.392;9.950;2023-02-01T10:04:47;5.50;;;4.83;;
579;SDS011;276;48.392;9.950;2023-02-01T10:20:56;4.80;;;4.50;;
579;SDS011;276;48.392;9.950;2023-02-01T10:26:37;5.17;;;4.77;;
579;SDS011;276;48.392;9.950;2023-02-01T10:29:15;5.80;;;5.23;;
579;SDS011;276;48.392;9.950;2023-02-01T10:31:44;5.60;;;5.13;;
579;SDS011;276;48.392;9.950;2023-02-01T10:34:24;6.00;;;4.60;;
579;SDS011;276;48.392;9.950;2023-02-01T10:36:56;4.97;;;4.57;;
579;SDS011;276;48.392;9.950;2023-02-01T10:39:26;5.10;;;4.60;;
579;SDS011;276;48.392;9.950;2023-02-01T10:41:55;5.50;;;5.07;;
579;SDS011;276;48.392;9.950;2023-02-01T10:44:23;5.50;;;5.10;;
579;SDS011;276;48.392;9.950;2023-02-01T10:46:54;5.83;;;5.30;;
579;SDS011;276;48.392;9.950;2023-02-01T10:52:16;5.80;;;5.30;;
579;SDS011;276;48.392;9.950;2023-02-01T10:54:50;6.20;;;5.60;;
579;SDS011;276;48.392;9.950;2023-02-01T10:57:23;6.60;;;6.10;;
579;SDS011;276;48.392;9.950;2023-02-01T10:59:51;6.50;;;5.90;;
579;SDS011;276;48.392;9.950;2023-02-01T11:02:23;8.37;;;6.30;;
579;SDS011;276;48.392;9.950;2023-02-01T11:05:02;6.23;;;5.63;;
579;SDS011;276;48.392;9.950;2023-02-01T11:07:30;5.87;;;5.37;;
579;SDS011;276;48.392;9.950;2023-02-01T11:09:59;6.63;;;6.03;;
579;SDS011;276;48.392;9.950;2023-02-01T11:12:37;7.70;;;7.00;;
579;SDS011;276;48.392;9.950;2023-02-01T11:15:14;6.13;;;5.53;;
579;SDS011;276;48.392;9.950;2023-02-01T11:17:47;5.43;;;4.93;;
579;SDS011;276;48.392;9.950;2023-02-01T11:20:18;7.00;;;5.50;;
579;SDS011;276;48.392;9.950;2023-02-01T11:22:55;5.03;;;4.63;;
579;SDS011;276;48.392;9.950;2023-02-01T11:25:21;6.37;;;5.20;;
579;SDS011;276;48.392;9.950;2023-02-01T11:27:53;5.53;;;5.03;;
579;SDS011;276;48.392;9.950;2023-02-01T11:30:30;6.10;;;4.33;;
579;SDS011;276;48.392;9.950;2023-02-01T11:33:03;4.47;;;3.30;;
579;SDS011;276;48.392;9.950;2023-02-01T11:35:39;7.33;;;5.83;;
579;SDS011;276;48.392;9.950;2023-02-01T11:38:24;4.20;;;3.77;;
579;SDS011;276;48.392;9.950;2023-02-01T11:40:51;4.20;;;3.70;;
579;SDS011;276;48.392;9.950;2023-02-01T11:45:53;8.33;;;6.13;;
579;SDS011;276;48.392;9.950;2023-02-01T11:48:21;5.03;;;4.30;;
579;SDS011;276;48.392;9.950;2023-02-01T12:15:57;4.67;;;4.03;;
579;SDS011;276;48.392;9.950;2023-02-01T12:26:45;4.30;;;3.73;;
579;SDS011;276;48.392;9.950;2023-02-01T12:32:42;3.20;;;2.90;;
579;SDS011;276;48.392;9.950;2023-02-01T12:49:19;4.13;;;3.63;;
579;SDS011;276;48.392;9.950;2023-02-01T12:51:51;5.07;;;3.60;;
579;SDS011;276;48.392;9.950;2023-02-01T12:56:57;3.80;;;3.50;;
579;SDS011;276;48.392;9.950;2023-02-01T13:02:26;6.20;;;3.70;;
579;SDS011;276;48.392;9.950;2023-02-01T13:05:22;2.70;;;2.50;;
579;SDS011;276;48.392;9.950;2023-02-01T13:07:59;8.53;;;3.63;;
579;SDS011;276;48.392;9.950;2023-02-01T13:10:46;5.47;;;3.50;;
579;SDS011;276;48.392;9.950;2023-02-01T13:13:22;4.20;;;2.10;;
579;SDS011;276;48.392;9.950;2023-02-01T13:18:54;5.77;;;2.83;;
579;SDS011;276;48.392;9.950;2023-02-01T13:21:55;6.27;;;2.07;;
579;SDS011;276;48.392;9.950;2023-02-01T13:24:42;4.27;;;1.70;;
579;SDS011;276;48.392;9.950;2023-02-01T13:27:12;8.83;;;2.50;;
579;SDS011;276;48.392;9.950;2023-02-01T13:29:42;6.93;;;2.13;;
579;SDS011;276;48.392;9.950;2023-02-01T13:32:43;4.00;;;2.23;;
579;SDS011;276;48.392;9.950;2023-02-01T13:38:01;7.17;;;2.57;;
579;SDS011;276;48.392;9.950;2023-02-01T13:45:43;4.60;;;2.00;;
579;SDS011;276;48.392;9.950;2023-02-01T13:48:22;3.50;;;1.80;;
579;SDS011;276;48.392;9.950;2023-02-01T13:50:56;3.90;;;1.70;;
579;SDS011;276;48.392;9.950;2023-02-01T13:53:30;6.73;;;2.60;;
579;SDS011;276;48.392;9.950;2023-02-01T13:55:58;3.63;;;2.10;;
579;SDS011;276;48.392;9.950;2023-02-01T13:58:49;2.60;;;1.87;;
579;SDS011;276;48.392;9.950;2023-02-01T14:03:50;4.27;;;2.53;;
579;SDS011;276;48.392;9.950;2023-02-01T14:11:34;6.67;;;2.40;;
579;SDS011;276;48.392;9.950;2023-02-01T14:14:07;5.97;;;1.90;;
579;SDS011;276;48.392;9.950;2023-02-01T14:21:50;5.47;;;2.10;;
579;SDS011;276;48.392;9.950;2023-02-01T14:24:26;7.00;;;3.07;;
579;SDS011;276;48.392;9.950;2023-02-01T14:26:55;3.80;;;2.30;;
579;SDS011;276;48.392;9.950;2023-02-01T14:29:35;5.23;;;2.20;;
579;SDS011;276;48.392;9.950;2023-02-01T14:42:39;6.23;;;3.10;;
579;SDS011;276;48.392;9.950;2023-02-01T14:55:59;7.40;;;2.13;;
579;SDS011;276;48.392;9.950;2023-02-01T15:06:54;4.63;;;2.87;;
579;SDS011;276;48.392;9.950;2023-02-01T15:09:30;6.90;;;2.20;;
579;SDS011;276;48.392;9.950;2023-02-01T15:17:39;9.57;;;2.43;;
579;SDS011;276;48.392;9.950;2023-02-01T15:22:51;8.17;;;3.67;;
579;SDS011;276;48.392;9.950;2023-02-01T15:25:19;6.20;;;2.90;;
579;SDS011;276;48.392;9.950;2023-02-01T15:27:47;7.40;;;2.20;;
579;SDS011;276;48.392;9.950;2023-02-01T15:30:30;5.67;;;2.90;;
579;SDS011;276;48.392;9.950;2023-02-01T15:33:06;4.23;;;2.50;;
579;SDS011;276;48.392;9.950;2023-02-01T15:35:48;5.30;;;2.20;;
579;SDS011;276;48.392;9.950;2023-02-01T15:40:57;5.60;;;3.03;;
579;SDS011;276;48.392;9.950;2023-02-01T15:43:28;10.97;;;3.63;;
579;SDS011;276;48.392;9.950;2023-02-01T15:46:01;7.87;;;2.70;;
579;SDS011;276;48.392;9.950;2023-02-01T15:48:32;10.50;;;2.43;;
579;SDS011;276;48.392;9.950;2023-02-01T15:51:02;4.50;;;2.83;;
579;SDS011;276;48.392;9.950;2023-02-01T15:53:31;6.63;;;2.63;;
579;SDS011;276;48.392;9.950;2023-02-01T15:56:00;3.90;;;1.87;;
579;SDS011;276;48.392;9.950;2023-02-01T15:58:31;3.60;;;2.10;;
579;SDS011;276;48.392;9.950;2023-02-01T16:01:03;10.20;;;3.30;;
579;SDS011;276;48.392;9.950;2023-02-01T16:06:03;8.47;;;2.27;;
579;SDS011;276;48.392;9.950;2023-02-01T16:08:37;3.53;;;2.17;;
579;SDS011;276;48.392;9.950;2023-02-01T16:11:14;5.10;;;2.83;;
579;SDS011;276;48.392;9.950;2023-02-01T16:13:48;3.50;;;2.60;;
579;SDS011;276;48.392;9.950;2023-02-01T16:16:16;6.20;;;2.10;;
579;SDS011;276;48.392;9.950;2023-02-01T16:18:44;9.27;;;2.60;;
579;SDS011;276;48.392;9.950;2023-02-01T16:21:10;5.97;;;2.47;;
579;SDS011;276;48.392;9.950;2023-02-01T16:23:38;8.20;;;2.90;;
579;SDS011;276;48.392;9.950;2023-02-01T16:26:06;8.20;;;3.30;;
579;SDS011;276;48.392;9.950;2023-02-01T16:28:32;4.03;;;2.20;;
579;SDS011;276;48.392;9.950;2023-02-01T16:30:58;6.80;;;2.80;;
579;SDS011;276;48.392;9.950;2023-02-01T16:33:25;5.93;;;2.70;;
579;SDS011;276;48.392;9.950;2023-02-01T16:35:51;7.40;;;3.50;;
579;SDS011;276;48.392;9.950;2023-02-01T16:38:24;7.33;;;3.80;;
579;SDS011;276;48.392;9.950;2023-02-01T16:40:51;11.20;;;3.00;;
579;SDS011;276;48.392;9.950;2023-02-01T16:43:23;4.40;;;4.00;;
579;SDS011;276;48.392;9.950;2023-02-01T16:45:52;8.80;;;2.23;;
579;SDS011;276;48.392;9.950;2023-02-01T16:48:29;5.43;;;2.63;;
579;SDS011;276;48.392;9.950;2023-02-01T16:51:03;6.47;;;3.17;;
579;SDS011;276;48.392;9.950;2023-02-01T16:53:36;9.53;;;3.40;;
579;SDS011;276;48.392;9.950;2023-02-01T16:56:04;6.43;;;2.70;;
579;SDS011;276;48.392;9.950;2023-02-01T16:58:50;9.30;;;4.13;;
579;SDS011;276;48.392;9.950;2023-02-01T17:01:18;10.57;;;3.57;;
579;SDS011;276;48.392;9.950;2023-02-01T17:03:51;3.93;;;2.93;;
579;SDS011;276;48.392;9.950;2023-02-01T17:06:18;6.37;;;2.30;;
579;SDS011;276;48.392;9.950;2023-02-01T17:08:56;4.70;;;3.03;;
579;SDS011;276;48.392;9.950;2023-02-01T17:11:25;7.30;;;2.60;;
579;SDS011;276;48.392;9.950;2023-02-01T17:13:52;3.63;;;2.93;;
579;SDS011;276;48.392;9.950;2023-02-01T17:16:28;5.13;;;2.87;;
579;SDS011;276;48.392;9.950;2023-02-01T17:18:58;4.57;;;2.30;;
579;SDS011;276;48.392;9.950;2023-02-01T17:21:29;6.13;;;3.37;;
579;SDS011;276;48.392;9.950;2023-02-01T17:24:01;3.30;;;1.80;;
579;SDS011;276;48.392;9.950;2023-02-01T17:26:30;6.93;;;3.33;;
579;SDS011;276;48.392;9.950;2023-02-01T17:28:55;7.83;;;3.90;;
579;SDS011;276;48.392;9.950;2023-02-01T17:31:21;9.33;;;2.90;;
579;SDS011;276;48.392;9.950;2023-02-01T17:33:47;6.30;;;3.73;;
579;SDS011;276;48.392;9.950;2023-02-01T17:36:14;9.50;;;4.30;;
579;SDS011;276;48.392;9.950;2023-02-01T17:38:43;5.97;;;2.67;;
579;SDS011;276;48.392;9.950;2023-02-01T17:41:12;4.50;;;2.60;;
579;SDS011;276;48.392;9.950;2023-02-01T17:43:43;3.63;;;2.90;;
579;SDS011;276;48.392;9.950;2023-02-01T17:48:37;10.97;;;3.50;;
579;SDS011;276;48.392;9.950;2023-02-01T17:51:08;11.90;;;3.83;;
579;SDS011;276;48.392;9.950;2023-02-01T17:53:40;3.70;;;2.93;;
579;SDS011;276;48.392;9.950;2023-02-01T17:56:07;11.37;;;3.83;;
579;SDS011;276;48.392;9.950;2023-02-01T17:58:41;5.70;;;2.93;;
579;SDS011;276;48.392;9.950;2023-02-01T18:01:10;8.83;;;2.90;;
579;SDS011;276;48.392;9.950;2023-02-01T18:03:44;6.17;;;2.70;;
579;SDS011;276;48.392;9.950;2023-02-01T18:06:14;12.63;;;3.43;;
579;SDS011;276;48.392;9.950;2023-02-01T18:08:41;6.93;;;3.13;;
579;SDS011;276;48.392;9.950;2023-02-01T18:11:12;7.70;;;3.73;;
579;SDS011;276;48.392;9.950;2023-02-01T18:13:41;8.40;;;3.67;;
579;SDS011;276;48.392;9.950;2023-02-01T18:16:14;4.83;;;2.60;;
579;SDS011;276;48.392;9.950;2023-02-01T18:18:46;7.60;;;3.10;;
579;SDS011;276;48.392;9.950;2023-02-01T18:21:18;8.00;;;3.23;;
579;SDS011;276;48.392;9.950;2023-02-01T18:23:48;6.20;;;2.93;;
579;SDS011;276;48.392;9.950;2023-02-01T18:26:15;9.40;;;3.70;;
579;SDS011;276;48.392;9.950;2023-02-01T18:28:44;5.90;;;3.43;;
579;SDS011;276;48.392;9.950;2023-02-01T18:31:21;10.57;;;4.20;;
579;SDS011;276;48.392;9.950;2023-02-01T18:33:48;4.77;;;3.27;;
579;SDS011;276;48.392;9.950;2023-02-01T18:36:15;6.23;;;3.43;;
579;SDS011;276;48.392;9.950;2023-02-01T18:38:43;5.23;;;3.40;;
579;SDS011;276;48.392;9.950;2023-02-01T18:41:14;5.73;;;2.93;;
579;SDS011;276;48.392;9.950;2023-02-01T18:43:44;6.40;;;3.13;;
579;SDS011;276;48.392;9.950;2023-02-01T18:46:10;4.30;;;2.63;;
579;SDS011;276;48.392;9.950;2023-02-01T18:48:36;15.00;;;5.80;;
579;SDS011;276;48.392;9.950;2023-02-01T18:51:02;3.10;;;2.57;;
579;SDS011;276;48.392;9.950;2023-02-01T18:53:29;7.97;;;3.70;;
579;SDS011;276;48.392;9.950;2023-02-01T18:55:57;4.07;;;3.47;;
579;SDS011;276;48.392;9.950;2023-02-01T18:58:26;8.63;;;3.37;;
579;SDS011;276;48.392;9.950;2023-02-01T19:00:53;11.63;;;3.80;;
579;SDS011;276;48.392;9.950;2023-02-01T19:03:21;10.00;;;2.73;;
579;SDS011;276;48.392;9.950;2023-02-01T19:05:51;8.10;;;3.90;;
579;SDS011;276;48.392;9.950;2023-02-01T19:08:23;9.57;;;3.80;;
579;SDS011;276;48.392;9.950;2023-02-01T19:10:49;5.00;;;3.30;;
579;SDS011;276;48.392;9.950;2023-02-01T19:13:16;7.60;;;3.40;;
579;SDS011;276;48.392;9.950;2023-02-01T19:15:44;10.80;;;4.27;;
579;SDS011;276;48.392;9.950;2023-02-01T19:18:15;6.93;;;4.13;;
579;SDS011;276;48.392;9.950;2023-02-01T19:20:44;6.00;;;3.70;;